createdAt,value
2023-02-12T00:01:32.221Z,103302.41
2023-02-12T00:04:01.526Z,103298.81
2023-02-12T00:06:31.075Z,103298.03
2023-02-12T00:09:00.601Z,103309.28
2023-02-12T00:11:33.873Z,103312.72
2023-02-12T00:14:05.560Z,103312.81
2023-02-12T00:16:34.788Z,103315.56
2023-02-12T00:19:04.207Z,103310.28
2023-02-12T00:21:34.064Z,103314.66
2023-02-12T00:24:03.761Z,103318.13
2023-02-12T00:26:34.660Z,103313.03
2023-02-12T00:29:04.135Z,103311.13
2023-02-12T00:31:33.867Z,103322.63
2023-02-12T00:34:02.949Z,103313.81
2023-02-12T00:36:33.555Z,103322.41
2023-02-12T00:39:03.066Z,103330.34
2023-02-12T00:41:33.773Z,103333.94
2023-02-12T00:44:02.846Z,103344.34
2023-02-12T00:46:31.949Z,103349.53
2023-02-12T00:49:01.020Z,103348.84
2023-02-12T00:51:30.127Z,103334.06
2023-02-12T00:53:59.297Z,103341.97
2023-02-12T00:56:28.557Z,103343.63
2023-02-12T00:58:58.981Z,103336.66
2023-02-12T01:01:28.103Z,103349.78
2023-02-12T01:03:58.595Z,103348.13
2023-02-12T01:06:29.106Z,103351.31
2023-02-12T01:08:58.178Z,103354.06
2023-02-12T01:11:27.217Z,103349.00
2023-02-12T01:13:56.309Z,103352.53
2023-02-12T01:16:27.306Z,103365.41
2023-02-12T01:18:57.182Z,103355.22
2023-02-12T01:21:29.041Z,103357.88
2023-02-12T01:23:58.272Z,103360.44
2023-02-12T01:26:28.448Z,103363.09
2023-02-12T01:28:59.276Z,103368.56
2023-02-12T01:31:32.764Z,103359.72
2023-02-12T01:34:02.592Z,103365.78
2023-02-12T01:36:33.295Z,103360.69
2023-02-12T01:39:03.596Z,103361.53
2023-02-12T01:41:34.505Z,103357.06
2023-02-12T01:44:16.895Z,103361.56
2023-02-12T01:46:51.204Z,103360.59
2023-02-12T01:49:25.505Z,103365.88
2023-02-12T01:51:59.026Z,103367.50
2023-02-12T01:54:29.685Z,103373.59
2023-02-12T01:57:00.160Z,103367.41
2023-02-12T01:59:30.389Z,103368.38
2023-02-12T02:02:01.091Z,103367.53
2023-02-12T02:04:37.774Z,103364.91
2023-02-12T02:07:09.378Z,103357.06
2023-02-12T02:09:40.645Z,103358.72
2023-02-12T02:12:27.475Z,103361.44
2023-02-12T02:15:02.191Z,103362.56
2023-02-12T02:17:56.456Z,103362.06
2023-02-12T02:20:49.721Z,103368.94
2023-02-12T02:23:48.696Z,103367.28
2023-02-12T02:26:56.559Z,103375.31
2023-02-12T02:29:50.241Z,103363.78
2023-02-12T02:32:24.989Z,103362.97
2023-02-12T02:35:00.986Z,103357.84
2023-02-12T02:37:37.249Z,103371.63
2023-02-12T02:40:12.518Z,103372.50
2023-02-12T02:42:48.173Z,103373.44
2023-02-12T02:45:22.213Z,103375.00
2023-02-12T02:48:01.285Z,103371.66
2023-02-12T02:50:32.938Z,103375.91
2023-02-12T02:53:05.658Z,103381.34
2023-02-12T02:55:40.264Z,103380.97
2023-02-12T02:58:15.671Z,103373.44
2023-02-12T03:00:48.800Z,103372.41
2023-02-12T03:03:24.898Z,103370.56
2023-02-12T03:05:59.011Z,103369.88
2023-02-12T03:08:34.231Z,103372.66
2023-02-12T03:11:10.234Z,103375.25
2023-02-12T03:13:44.779Z,103379.69
2023-02-12T03:16:19.303Z,103378.06
2023-02-12T03:18:54.375Z,103382.16
2023-02-12T03:21:31.191Z,103377.69
2023-02-12T03:24:06.038Z,103379.69
2023-02-12T03:26:43.668Z,103372.88
2023-02-12T03:29:13.470Z,103379.69
2023-02-12T03:32:04.183Z,103375.19
2023-02-12T03:34:47.276Z,103390.09
2023-02-12T03:37:22.930Z,103387.38
2023-02-12T03:39:57.728Z,103387.50
2023-02-12T03:42:36.696Z,103395.16
2023-02-12T03:45:16.011Z,103392.53
2023-02-12T03:47:50.341Z,103391.81
2023-02-12T03:50:28.953Z,103399.59
2023-02-12T03:52:57.981Z,103401.53
2023-02-12T03:55:27.510Z,103406.63
2023-02-12T03:58:01.889Z,103416.84
2023-02-12T04:00:31.401Z,103407.59
2023-02-12T04:03:00.896Z,103410.09
2023-02-12T04:05:31.337Z,103413.56
2023-02-12T04:08:01.636Z,103410.84
2023-02-12T04:10:36.747Z,103419.44
2023-02-12T04:13:12.493Z,103415.84
2023-02-12T04:15:55.000Z,103407.50
2023-02-12T04:18:30.840Z,103410.09
2023-02-12T04:21:08.232Z,103411.78
2023-02-12T04:23:48.944Z,103419.69
2023-02-12T04:26:27.969Z,103420.34
2023-02-12T04:29:09.703Z,103426.66
2023-02-12T04:31:47.739Z,103426.53
2023-02-12T04:34:26.176Z,103432.59
2023-02-12T04:37:00.303Z,103431.84
2023-02-12T04:39:31.605Z,103435.25
2023-02-12T04:42:01.790Z,103431.75
2023-02-12T04:44:33.835Z,103431.75
2023-02-12T04:47:03.315Z,103431.75
2023-02-12T04:49:32.511Z,103432.81
2023-02-12T04:52:02.932Z,103434.41
2023-02-12T04:54:32.057Z,103437.06
2023-02-12T04:57:01.152Z,103440.41
2023-02-12T04:59:30.241Z,103436.88
2023-02-12T05:01:59.312Z,103430.88
2023-02-12T05:04:28.560Z,103432.81
2023-02-12T05:06:57.621Z,103433.47
2023-02-12T05:09:28.024Z,103425.94
2023-02-12T05:11:57.094Z,103435.19
2023-02-12T05:14:26.430Z,103438.56
2023-02-12T05:16:55.474Z,103434.53
2023-02-12T05:19:24.565Z,103442.19
2023-02-12T05:21:53.673Z,103438.66
2023-02-12T05:24:22.717Z,103451.84
2023-02-12T05:26:53.496Z,103448.22
2023-02-12T05:29:22.598Z,103452.41
2023-02-12T05:31:51.773Z,103455.00
2023-02-12T05:34:21.196Z,103453.16
2023-02-12T05:36:50.259Z,103450.75
2023-02-12T05:39:19.329Z,103442.25
2023-02-12T05:41:48.458Z,103441.41
2023-02-12T05:44:18.903Z,103447.50
2023-02-12T05:46:48.078Z,103455.06
2023-02-12T05:49:17.197Z,103455.94
2023-02-12T05:51:46.296Z,103442.25
2023-02-12T05:54:15.469Z,103452.56
2023-02-12T05:56:46.575Z,103451.47
2023-02-12T05:59:19.255Z,103455.84
2023-02-12T06:01:50.310Z,103460.09
2023-02-12T06:04:23.412Z,103456.72
2023-02-12T06:06:52.732Z,103455.00
2023-02-12T06:09:21.811Z,103449.97
2023-02-12T06:11:51.059Z,103458.38
2023-02-12T06:14:22.536Z,103459.44
2023-02-12T06:16:53.028Z,103460.13
2023-02-12T06:19:22.428Z,103454.13
2023-02-12T06:21:51.576Z,103455.84
2023-02-12T06:24:20.975Z,103450.75
2023-02-12T06:26:52.153Z,103451.59
2023-02-12T06:29:23.678Z,103461.06
2023-02-12T06:31:52.916Z,103456.63
2023-02-12T06:34:22.224Z,103451.59
2023-02-12T06:36:51.309Z,103464.47
2023-02-12T06:39:20.421Z,103461.97
2023-02-12T06:41:49.489Z,103458.25
2023-02-12T06:44:18.599Z,103467.81
2023-02-12T06:46:49.120Z,103483.47
2023-02-12T06:49:18.376Z,103476.59
2023-02-12T06:51:47.508Z,103481.72
2023-02-12T06:54:18.730Z,103487.75
2023-02-12T06:56:47.838Z,103486.06
2023-02-12T06:59:18.590Z,103494.69
2023-02-12T07:01:49.090Z,103486.81
2023-02-12T07:04:18.248Z,103492.63
2023-02-12T07:06:47.329Z,103502.28
2023-02-12T07:09:16.397Z,103508.28
2023-02-12T07:11:45.573Z,103503.94
2023-02-12T07:14:17.055Z,103509.97
2023-02-12T07:16:46.266Z,103513.25
2023-02-12T07:19:17.868Z,103515.88
2023-02-12T07:21:46.947Z,103515.19
2023-02-12T07:24:18.135Z,103515.78
2023-02-12T07:26:47.453Z,103521.72
2023-02-12T07:29:17.108Z,103526.94
2023-02-12T07:31:47.403Z,103524.38
2023-02-12T07:34:18.224Z,103530.38
2023-02-12T07:36:47.274Z,103532.34
2023-02-12T07:39:16.548Z,103532.19
2023-02-12T07:41:45.608Z,103530.66
2023-02-12T07:44:14.871Z,103536.34
2023-02-12T07:46:48.506Z,103544.91
2023-02-12T07:49:21.610Z,103538.19
2023-02-12T07:51:51.205Z,103532.84
2023-02-12T07:54:20.279Z,103529.47
2023-02-12T07:56:49.436Z,103534.16
2023-02-12T07:59:20.407Z,103531.63
2023-02-12T08:01:51.047Z,103541.19
2023-02-12T08:04:24.229Z,103552.34
2023-02-12T08:06:55.798Z,103539.13
2023-02-12T08:09:27.798Z,103541.88
2023-02-12T08:11:56.887Z,103545.81
2023-02-12T08:14:27.257Z,103547.75
2023-02-12T08:16:56.484Z,103551.31
2023-02-12T08:19:27.150Z,103552.22
2023-02-12T08:21:57.259Z,103555.66
2023-02-12T08:24:27.130Z,103556.31
2023-02-12T08:26:56.814Z,103555.34
2023-02-12T08:29:28.699Z,103565.69
2023-02-12T08:32:00.078Z,103564.59
2023-02-12T08:34:32.466Z,103562.41
2023-02-12T08:37:02.186Z,103575.13
2023-02-12T08:39:31.848Z,103577.09
2023-02-12T08:42:01.584Z,103575.88
2023-02-12T08:44:31.017Z,103568.94
2023-02-12T08:47:00.113Z,103567.31
2023-02-12T08:49:31.493Z,103562.09
2023-02-12T08:52:02.553Z,103568.94
2023-02-12T08:54:32.897Z,103576.00
2023-02-12T08:57:03.620Z,103574.81
2023-02-12T08:59:32.802Z,103576.44
2023-02-12T09:02:03.997Z,103580.19
2023-02-12T09:04:35.896Z,103583.63
2023-02-12T09:07:05.010Z,103584.41
2023-02-12T09:09:34.101Z,103583.56
2023-02-12T09:12:03.192Z,103591.22
2023-02-12T09:14:32.282Z,103586.03
2023-02-12T09:17:01.407Z,103590.63
2023-02-12T09:19:30.513Z,103589.69
2023-02-12T09:22:00.927Z,103595.78
2023-02-12T09:24:30.014Z,103584.63
2023-02-12T09:26:59.047Z,103588.50
2023-02-12T09:29:28.138Z,103588.63
2023-02-12T09:31:57.745Z,103594.72
2023-02-12T09:34:26.887Z,103598.03
2023-02-12T09:36:55.955Z,103594.56
2023-02-12T09:39:28.806Z,103590.66
2023-02-12T09:42:21.275Z,103597.16
2023-02-12T09:45:02.890Z,103597.97
2023-02-12T09:47:37.590Z,103599.88
2023-02-12T09:50:20.489Z,103607.13
2023-02-12T09:52:50.673Z,103609.56
2023-02-12T09:55:23.742Z,103608.34
2023-02-12T09:57:54.893Z,103613.41
2023-02-12T10:00:27.978Z,103622.59
2023-02-12T10:02:57.187Z,103609.59
2023-02-12T10:05:29.949Z,103618.31
2023-02-12T10:08:13.136Z,103617.31
2023-02-12T10:10:52.754Z,103629.38
2023-02-12T10:13:36.515Z,103613.97
2023-02-12T10:16:15.537Z,103624.22
2023-02-12T10:19:02.547Z,103616.56
2023-02-12T10:21:54.312Z,103628.50
2023-02-12T10:24:44.857Z,103616.31
2023-02-12T10:27:18.480Z,103626.19
2023-02-12T10:29:50.323Z,103622.59
2023-02-12T10:32:26.763Z,103622.44
2023-02-12T10:34:57.609Z,103627.13
2023-02-12T10:37:37.032Z,103622.59
2023-02-12T10:40:19.689Z,103619.66
2023-02-12T10:42:53.701Z,103615.72
2023-02-12T10:45:26.232Z,103617.09
2023-02-12T10:48:04.536Z,103618.16
2023-02-12T10:50:45.910Z,103615.44
2023-02-12T10:53:21.410Z,103613.00
2023-02-12T10:55:50.869Z,103618.81
2023-02-12T10:58:25.016Z,103610.22
2023-02-12T11:00:59.577Z,103611.31
2023-02-12T11:03:36.022Z,103611.22
2023-02-12T11:06:16.606Z,103612.28
2023-02-12T11:08:46.154Z,103607.97
2023-02-12T11:11:20.426Z,103606.97
2023-02-12T11:13:58.637Z,103606.06
2023-02-12T11:16:33.209Z,103604.22
2023-02-12T11:19:05.770Z,103600.75
2023-02-12T11:21:36.341Z,103604.44
2023-02-12T11:24:31.683Z,103594.63
2023-02-12T11:27:22.543Z,103604.09
2023-02-12T11:30:17.752Z,103592.50
2023-02-12T11:32:49.264Z,103594.31
2023-02-12T11:35:25.682Z,103597.94
2023-02-12T11:37:57.947Z,103580.56
2023-02-12T11:40:29.606Z,103589.19
2023-02-12T11:43:01.584Z,103581.47
2023-02-12T11:45:35.616Z,103584.00
2023-02-12T11:48:16.367Z,103577.75
2023-02-12T11:50:49.218Z,103586.44
2023-02-12T11:53:25.950Z,103578.22
2023-02-12T11:55:58.395Z,103582.72
2023-02-12T11:58:28.949Z,103584.09
2023-02-12T12:01:09.627Z,103585.53
2023-02-12T12:03:46.821Z,103584.78
2023-02-12T12:06:33.960Z,103591.53
2023-02-12T12:09:08.367Z,103588.16
2023-02-12T12:11:47.697Z,103584.28
2023-02-12T12:14:25.338Z,103573.03
2023-02-12T12:17:19.116Z,103582.34
2023-02-12T12:19:57.751Z,103584.78
2023-02-12T12:22:51.646Z,103578.00
2023-02-12T12:25:27.189Z,103582.66
2023-02-12T12:28:08.199Z,103575.69
2023-02-12T12:30:55.161Z,103577.56
2023-02-12T12:33:33.751Z,103575.03
2023-02-12T12:36:31.960Z,103565.78
2023-02-12T12:39:09.316Z,103576.94
2023-02-12T12:41:49.924Z,103572.94
2023-02-12T12:44:36.740Z,103565.91
2023-02-12T12:47:19.462Z,103556.56
2023-02-12T12:50:20.458Z,103546.56
2023-02-12T12:53:14.354Z,103554.44
2023-02-12T12:56:03.266Z,103536.97
2023-02-12T12:58:48.909Z,103545.41
2023-02-12T13:01:43.441Z,103540.03
2023-02-12T13:05:03.271Z,103540.09
2023-02-12T13:07:49.979Z,103540.50
2023-02-12T13:10:29.736Z,103538.91
2023-02-12T13:13:16.340Z,103536.69
2023-02-12T13:15:52.105Z,103540.63
2023-02-12T13:18:31.065Z,103537.63
2023-02-12T13:21:11.453Z,103538.03
2023-02-12T13:23:49.004Z,103530.84
2023-02-12T13:26:30.407Z,103530.56
2023-02-12T13:29:06.284Z,103530.97
2023-02-12T13:31:46.491Z,103524.84
2023-02-12T13:34:18.776Z,103529.81
2023-02-12T13:36:50.094Z,103516.28
2023-02-12T13:39:31.009Z,103524.84
2023-02-12T13:42:14.651Z,103529.84
2023-02-12T13:44:51.969Z,103528.59
2023-02-12T13:47:33.397Z,103525.75
2023-02-12T13:50:09.184Z,103522.25
2023-02-12T13:52:45.148Z,103521.44
2023-02-12T13:55:25.956Z,103523.13
2023-02-12T13:58:32.679Z,103527.31
2023-02-12T14:01:05.321Z,103527.56
2023-02-12T14:03:36.020Z,103523.84
2023-02-12T14:06:18.101Z,103531.09
2023-02-12T14:08:52.504Z,103527.31
2023-02-12T14:11:27.342Z,103522.59
2023-02-12T14:13:59.721Z,103519.56
2023-02-12T14:16:42.612Z,103515.94
2023-02-12T14:19:41.247Z,103523.53
2023-02-12T14:22:34.763Z,103511.72
2023-02-12T14:25:26.525Z,103517.63
2023-02-12T14:27:59.637Z,103519.34
2023-02-12T14:30:35.476Z,103516.72
2023-02-12T14:33:23.582Z,103520.22
2023-02-12T14:36:15.120Z,103521.78
2023-02-12T14:39:07.377Z,103522.22
2023-02-12T14:41:38.984Z,103526.44
2023-02-12T14:44:41.932Z,103520.44
2023-02-12T14:47:38.864Z,103528.72
2023-02-12T14:50:17.910Z,103530.81
2023-02-12T14:53:01.338Z,103526.31
2023-02-12T14:55:34.336Z,103528.06
2023-02-12T14:58:07.206Z,103523.59
2023-02-12T15:00:40.269Z,103529.56
2023-02-12T15:03:22.582Z,103533.25
2023-02-12T15:06:03.992Z,103530.78
2023-02-12T15:08:40.983Z,103529.81
2023-02-12T15:11:26.154Z,103536.16
2023-02-12T15:14:01.055Z,103532.56
2023-02-12T15:16:45.963Z,103536.38
2023-02-12T15:19:27.813Z,103536.81
2023-02-12T15:21:57.161Z,103534.38
2023-02-12T15:24:27.367Z,103535.16
2023-02-12T15:27:00.905Z,103536.63
2023-02-12T15:29:34.325Z,103534.16
2023-02-12T15:32:07.670Z,103532.19
2023-02-12T15:34:41.734Z,103533.16
2023-02-12T15:37:19.031Z,103539.50
2023-02-12T15:39:48.855Z,103541.84
2023-02-12T15:42:30.858Z,103544.16
2023-02-12T15:45:22.058Z,103545.97
2023-02-12T15:48:12.931Z,103543.13
2023-02-12T15:50:54.072Z,103540.25
2023-02-12T15:53:25.263Z,103541.31
2023-02-12T15:55:55.121Z,103545.72
2023-02-12T15:58:27.120Z,103550.91
2023-02-12T16:01:01.459Z,103547.34
2023-02-12T16:03:33.017Z,103545.56
2023-02-12T16:06:11.103Z,103547.22
2023-02-12T16:08:41.824Z,103548.19
2023-02-12T16:11:15.494Z,103544.94
2023-02-12T16:13:47.850Z,103546.50
2023-02-12T16:16:24.189Z,103542.88
2023-02-12T16:19:16.765Z,103554.56
2023-02-12T16:21:50.220Z,103556.94
2023-02-12T16:24:28.499Z,103556.38
2023-02-12T16:26:59.389Z,103570.31
2023-02-12T16:29:31.339Z,103568.03
2023-02-12T16:32:02.219Z,103567.19
2023-02-12T16:34:36.321Z,103570.66
2023-02-12T16:37:46.116Z,103573.97
2023-02-12T16:40:27.197Z,103580.53
2023-02-12T16:43:24.390Z,103582.34
2023-02-12T16:46:04.079Z,103580.59
2023-02-12T16:48:40.783Z,103585.81
2023-02-12T16:51:23.304Z,103582.16
2023-02-12T16:53:57.379Z,103582.97
2023-02-12T16:56:28.777Z,103584.09
2023-02-12T16:59:00.545Z,103581.44
2023-02-12T17:01:31.840Z,103580.53
2023-02-12T17:04:03.059Z,103581.38
2023-02-12T17:06:33.893Z,103579.47
2023-02-12T17:09:04.416Z,103573.63
2023-02-12T17:11:33.485Z,103576.25
2023-02-12T17:14:02.604Z,103584.97
2023-02-12T17:16:32.533Z,103583.84
2023-02-12T17:19:02.435Z,103587.56
2023-02-12T17:21:38.015Z,103579.88
2023-02-12T17:24:14.994Z,103586.72
2023-02-12T17:26:44.284Z,103584.72
2023-02-12T17:29:13.600Z,103586.59
2023-02-12T17:31:42.754Z,103589.94
2023-02-12T17:34:12.130Z,103584.97
2023-02-12T17:36:41.422Z,103596.97
2023-02-12T17:39:14.936Z,103590.94
2023-02-12T17:41:45.212Z,103597.13
2023-02-12T17:44:15.546Z,103592.78
2023-02-12T17:46:45.295Z,103601.50
2023-02-12T17:49:14.640Z,103598.03
2023-02-12T17:51:43.791Z,103596.16
2023-02-12T17:54:17.595Z,103603.09
2023-02-12T17:56:46.808Z,103601.03
2023-02-12T17:59:15.900Z,103612.63
2023-02-12T18:01:48.368Z,103609.25
2023-02-12T18:04:19.127Z,103606.81
2023-02-12T18:06:48.332Z,103610.00
2023-02-12T18:09:19.027Z,103615.13
2023-02-12T18:11:48.122Z,103609.44
2023-02-12T18:14:17.226Z,103610.97
2023-02-12T18:16:46.685Z,103610.19
2023-02-12T18:19:16.356Z,103605.66
2023-02-12T18:21:45.428Z,103611.06
2023-02-12T18:24:15.267Z,103610.09
2023-02-12T18:26:46.160Z,103614.66
2023-02-12T18:29:15.477Z,103611.94
2023-02-12T18:31:45.032Z,103622.69
2023-02-12T18:34:14.587Z,103619.97
2023-02-12T18:36:43.889Z,103627.59
2023-02-12T18:39:12.982Z,103622.50
2023-02-12T18:41:42.282Z,103627.63
2023-02-12T18:44:13.182Z,103632.09
2023-02-12T18:46:42.611Z,103627.94
2023-02-12T18:49:14.254Z,103626.19
2023-02-12T18:51:43.626Z,103623.34
2023-02-12T18:54:14.653Z,103625.00
2023-02-12T18:56:46.790Z,103627.69
2023-02-12T18:59:20.390Z,103619.09
2023-02-12T19:01:50.555Z,103619.03
2023-02-12T19:04:23.116Z,103614.75
2023-02-12T19:06:56.400Z,103616.38
2023-02-12T19:09:27.301Z,103623.59
2023-02-12T19:11:59.032Z,103623.69
2023-02-12T19:14:29.879Z,103626.19
2023-02-12T19:16:59.065Z,103624.44
2023-02-12T19:19:29.526Z,103629.56
2023-02-12T19:21:59.121Z,103625.25
2023-02-12T19:24:37.757Z,103623.69
2023-02-12T19:27:17.826Z,103625.25
2023-02-12T19:29:48.616Z,103620.25
2023-02-12T19:32:17.756Z,103627.19
2023-02-12T19:34:47.750Z,103621.94
2023-02-12T19:37:17.580Z,103622.91
2023-02-12T19:39:47.487Z,103627.09
2023-02-12T19:42:18.942Z,103629.75
2023-02-12T19:44:50.072Z,103625.31
2023-02-12T19:47:19.420Z,103629.78
2023-02-12T19:49:49.197Z,103622.81
2023-02-12T19:52:18.789Z,103626.31
2023-02-12T19:54:48.466Z,103626.28
2023-02-12T19:57:17.692Z,103629.88
2023-02-12T19:59:48.329Z,103631.81
2023-02-12T20:02:20.812Z,103628.16
2023-02-12T20:04:50.309Z,103629.03
2023-02-12T20:07:19.496Z,103630.09
2023-02-12T20:09:52.185Z,103635.09
2023-02-12T20:12:21.580Z,103625.72
2023-02-12T20:14:52.137Z,103629.78
2023-02-12T20:17:22.263Z,103621.22
2023-02-12T20:19:51.751Z,103626.38
2023-02-12T20:22:24.740Z,103627.28
2023-02-12T20:24:54.287Z,103625.53
2023-02-12T20:27:23.930Z,103628.34
2023-02-12T20:29:54.720Z,103615.97
2023-02-12T20:32:24.099Z,103620.50
2023-02-12T20:34:53.857Z,103624.81
2023-02-12T20:37:23.199Z,103622.19
2023-02-12T20:39:52.812Z,103619.59
2023-02-12T20:42:22.350Z,103618.91
2023-02-12T20:44:53.061Z,103618.09
2023-02-12T20:47:28.351Z,103626.84
2023-02-12T20:49:58.369Z,103627.63
2023-02-12T20:52:28.000Z,103629.22
2023-02-12T20:54:57.267Z,103623.22
2023-02-12T20:57:26.491Z,103626.75
2023-02-12T20:59:59.521Z,103622.34
2023-02-12T21:02:29.101Z,103624.09
2023-02-12T21:04:58.478Z,103620.66
2023-02-12T21:07:27.581Z,103625.88
2023-02-12T21:09:56.980Z,103621.50
2023-02-12T21:12:26.467Z,103622.47
2023-02-12T21:14:57.031Z,103620.72
2023-02-12T21:17:26.237Z,103617.19
2023-02-12T21:19:55.355Z,103612.13
2023-02-12T21:22:24.820Z,103612.88
2023-02-12T21:24:54.113Z,103611.94
2023-02-12T21:27:23.459Z,103613.69
2023-02-12T21:29:54.305Z,103611.06
2023-02-12T21:32:24.980Z,103617.34
2023-02-12T21:34:54.337Z,103613.75
2023-02-12T21:37:23.680Z,103611.28
2023-02-12T21:39:52.843Z,103606.78
2023-02-12T21:42:21.986Z,103613.78
2023-02-12T21:44:51.491Z,103615.50
2023-02-12T21:47:20.877Z,103615.59
2023-02-12T21:49:52.112Z,103611.34
2023-02-12T21:52:21.393Z,103613.13
2023-02-12T21:54:56.954Z,103620.03
2023-02-12T21:57:26.358Z,103630.41
2023-02-12T21:59:55.702Z,103623.44
2023-02-12T22:02:25.523Z,103620.94
2023-02-12T22:05:00.038Z,103614.97
2023-02-12T22:07:29.334Z,103614.72
2023-02-12T22:09:58.520Z,103618.41
2023-02-12T22:12:32.454Z,103617.34
2023-02-12T22:15:01.733Z,103619.97
2023-02-12T22:17:32.416Z,103619.97
2023-02-12T22:20:03.713Z,103624.44
2023-02-12T22:22:32.864Z,103618.16
2023-02-12T22:25:02.603Z,103608.69
2023-02-12T22:27:33.221Z,103614.81
2023-02-12T22:30:03.297Z,103621.88
2023-02-12T22:32:32.713Z,103616.72
2023-02-12T22:35:03.192Z,103619.38
2023-02-12T22:37:32.259Z,103615.84
2023-02-12T22:40:01.312Z,103620.25
2023-02-12T22:42:30.509Z,103615.84
2023-02-12T22:44:59.691Z,103616.00
2023-02-12T22:47:31.896Z,103613.50
2023-02-12T22:50:02.381Z,103619.44
2023-02-12T22:52:33.561Z,103610.78
2023-02-12T22:55:02.958Z,103605.72
2023-02-12T22:57:32.239Z,103611.69
2023-02-12T23:00:05.568Z,103616.16
2023-02-12T23:02:34.933Z,103615.19
2023-02-12T23:05:05.738Z,103610.78
2023-02-12T23:07:35.094Z,103614.22
2023-02-12T23:10:04.602Z,103608.19
2023-02-12T23:12:33.759Z,103610.94
2023-02-12T23:15:03.187Z,103615.25
2023-02-12T23:17:32.900Z,103621.31
2023-02-12T23:20:02.264Z,103612.75
2023-02-12T23:22:33.015Z,103617.06
2023-02-12T23:25:02.148Z,103619.75
2023-02-12T23:27:31.485Z,103627.59
2023-02-12T23:30:00.613Z,103615.53
2023-02-12T23:32:29.773Z,103623.25
2023-02-12T23:34:58.865Z,103614.66
2023-02-12T23:37:28.114Z,103620.69
2023-02-12T23:39:58.790Z,103622.41
2023-02-12T23:42:28.073Z,103615.50
2023-02-12T23:44:57.867Z,103613.63
2023-02-12T23:47:27.208Z,103613.53
2023-02-12T23:49:56.470Z,103610.94
2023-02-12T23:52:26.095Z,103612.63
2023-02-12T23:54:57.025Z,103602.53
2023-02-12T23:57:27.102Z,103609.34
2023-02-12T23:59:56.251Z,103610.34
